createdAt,value
2023-09-07T00:01:05.831Z,17.50
2023-09-07T00:02:07.610Z,17.50
2023-09-07T00:03:09.521Z,17.50
2023-09-07T00:04:11.725Z,17.50
2023-09-07T00:05:14.421Z,17.50
2023-09-07T00:06:15.901Z,17.40
2023-09-07T00:07:17.620Z,17.50
2023-09-07T00:08:19.400Z,17.50
2023-09-07T00:09:23.053Z,17.50
2023-09-07T00:10:26.836Z,17.50
2023-09-07T00:11:28.634Z,17.50
2023-09-07T00:12:30.511Z,17.50
2023-09-07T00:13:32.475Z,17.40
2023-09-07T00:14:33.933Z,17.40
2023-09-07T00:15:39.369Z,17.40
2023-09-07T00:16:41.209Z,17.30
2023-09-07T00:17:43.001Z,17.30
2023-09-07T00:18:44.450Z,17.30
2023-09-07T00:19:47.678Z,17.30
2023-09-07T00:20:49.746Z,17.30
2023-09-07T00:21:52.829Z,17.30
2023-09-07T00:22:54.298Z,17.30
2023-09-07T00:23:56.224Z,17.30
2023-09-07T00:24:58.793Z,17.30
2023-09-07T00:26:00.215Z,17.30
2023-09-07T00:27:01.870Z,17.30
2023-09-07T00:28:04.012Z,17.30
2023-09-07T00:29:07.585Z,17.20
2023-09-07T00:30:10.534Z,17.20
2023-09-07T00:31:12.048Z,17.20
2023-09-07T00:32:13.669Z,17.20
2023-09-07T00:33:15.160Z,17.20
2023-09-07T00:34:16.685Z,17.20
2023-09-07T00:35:18.173Z,17.20
2023-09-07T00:36:19.653Z,17.10
2023-09-07T00:37:21.671Z,17.10
2023-09-07T00:38:23.236Z,17.10
2023-09-07T00:39:24.773Z,17.10
2023-09-07T00:40:27.448Z,17.10
2023-09-07T00:41:29.284Z,17.10
2023-09-07T00:42:30.867Z,17.00
2023-09-07T00:43:32.340Z,17.00
2023-09-07T00:44:33.809Z,17.00
2023-09-07T00:45:35.475Z,17.00
2023-09-07T00:46:37.411Z,17.00
2023-09-07T00:47:39.038Z,17.10
2023-09-07T00:48:40.845Z,17.10
2023-09-07T00:49:43.143Z,17.00
2023-09-07T00:50:48.042Z,17.00
2023-09-07T00:51:49.555Z,17.00
2023-09-07T00:52:52.062Z,17.00
2023-09-07T00:53:54.701Z,17.00
2023-09-07T00:54:56.468Z,17.00
2023-09-07T00:55:59.873Z,17.00
2023-09-07T00:57:01.567Z,17.00
2023-09-07T00:58:04.929Z,17.00
2023-09-07T00:59:08.616Z,17.00
2023-09-07T01:00:11.114Z,17.00
2023-09-07T01:01:13.073Z,17.00
2023-09-07T01:02:14.781Z,17.00
2023-09-07T01:03:17.399Z,17.00
2023-09-07T01:04:19.026Z,17.00
2023-09-07T01:05:25.584Z,16.90
2023-09-07T01:06:32.105Z,16.90
2023-09-07T01:07:38.624Z,16.90
2023-09-07T01:08:49.529Z,16.90
2023-09-07T01:09:57.048Z,16.90
2023-09-07T01:10:58.599Z,16.90
2023-09-07T01:12:00.156Z,16.90
2023-09-07T01:13:01.695Z,16.90
2023-09-07T01:14:05.219Z,16.80
2023-09-07T01:15:07.556Z,16.80
2023-09-07T01:16:14.459Z,16.80
2023-09-07T01:17:17.962Z,16.80
2023-09-07T01:18:38.334Z,16.80
2023-09-07T01:19:42.077Z,16.90
2023-09-07T01:20:45.496Z,16.80
2023-09-07T01:21:47.617Z,16.80
2023-09-07T01:22:49.535Z,16.80
2023-09-07T01:23:52.829Z,16.80
2023-09-07T01:24:55.108Z,16.80
2023-09-07T01:25:56.998Z,16.80
2023-09-07T01:26:59.883Z,16.80
2023-09-07T01:28:01.634Z,16.70
2023-09-07T01:29:03.567Z,16.70
2023-09-07T01:30:06.117Z,16.80
2023-09-07T01:31:07.847Z,16.70
2023-09-07T01:32:11.322Z,16.70
2023-09-07T01:33:46.521Z,16.80
2023-09-07T01:34:48.104Z,16.70
2023-09-07T01:35:49.980Z,16.80
2023-09-07T01:36:51.904Z,16.80
2023-09-07T01:37:53.399Z,16.70
2023-09-07T01:38:55.202Z,16.80
2023-09-07T01:39:56.613Z,16.80
2023-09-07T01:40:58.194Z,16.70
2023-09-07T01:41:59.865Z,16.80
2023-09-07T01:43:01.330Z,16.80
2023-09-07T01:44:03.022Z,16.80
2023-09-07T01:45:05.156Z,16.70
2023-09-07T01:46:06.747Z,16.70
2023-09-07T01:47:08.363Z,16.80
2023-09-07T01:48:15.591Z,16.70
2023-09-07T01:49:17.194Z,16.70
2023-09-07T01:50:19.005Z,16.70
2023-09-07T01:51:20.452Z,16.60
2023-09-07T01:52:23.664Z,16.70
2023-09-07T01:53:26.464Z,16.70
2023-09-07T01:54:33.032Z,16.60
2023-09-07T01:55:39.547Z,16.60
2023-09-07T01:56:42.612Z,16.60
2023-09-07T01:57:45.211Z,16.60
2023-09-07T01:58:46.890Z,16.60
2023-09-07T01:59:49.439Z,16.60
2023-09-07T02:00:51.252Z,16.60
2023-09-07T02:01:53.496Z,16.60
2023-09-07T02:02:55.474Z,16.60
2023-09-07T02:03:57.490Z,16.60
2023-09-07T02:04:59.362Z,16.60
2023-09-07T02:06:00.786Z,16.60
2023-09-07T02:07:02.360Z,16.50
2023-09-07T02:08:05.069Z,16.50
2023-09-07T02:09:06.689Z,16.50
2023-09-07T02:10:08.806Z,16.50
2023-09-07T02:11:10.350Z,16.50
2023-09-07T02:12:12.686Z,16.50
2023-09-07T02:13:14.077Z,16.60
2023-09-07T02:14:16.779Z,16.50
2023-09-07T02:15:18.728Z,16.50
2023-09-07T02:16:20.129Z,16.50
2023-09-07T02:17:22.222Z,16.50
2023-09-07T02:18:24.159Z,16.50
2023-09-07T02:19:26.730Z,16.50
2023-09-07T02:20:28.221Z,16.50
2023-09-07T02:21:29.777Z,16.50
2023-09-07T02:22:31.355Z,16.50
2023-09-07T02:23:33.841Z,16.50
2023-09-07T02:24:36.238Z,16.50
2023-09-07T02:25:37.722Z,16.50
2023-09-07T02:26:44.781Z,16.50
2023-09-07T02:27:46.302Z,16.50
2023-09-07T02:28:47.826Z,16.40
2023-09-07T02:29:49.497Z,16.40
2023-09-07T02:30:51.329Z,16.50
2023-09-07T02:31:53.193Z,16.50
2023-09-07T02:32:55.672Z,16.40
2023-09-07T02:33:57.174Z,16.40
2023-09-07T02:34:59.012Z,16.50
2023-09-07T02:36:00.663Z,16.50
2023-09-07T02:37:02.846Z,16.50
2023-09-07T02:38:04.702Z,16.50
2023-09-07T02:39:06.259Z,16.50
2023-09-07T02:40:11.344Z,16.40
2023-09-07T02:41:12.833Z,16.40
2023-09-07T02:42:14.350Z,16.40
2023-09-07T02:43:17.334Z,16.40
2023-09-07T02:44:18.826Z,16.40
2023-09-07T02:45:20.535Z,16.40
2023-09-07T02:46:22.107Z,16.40
2023-09-07T02:47:23.546Z,16.40
2023-09-07T02:48:24.980Z,16.50
2023-09-07T02:49:26.700Z,16.50
2023-09-07T02:50:30.984Z,16.50
2023-09-07T02:51:32.452Z,16.40
2023-09-07T02:52:34.145Z,16.50
2023-09-07T02:53:35.692Z,16.50
2023-09-07T02:54:37.193Z,16.50
2023-09-07T02:55:40.946Z,16.50
2023-09-07T02:56:42.722Z,16.50
2023-09-07T02:57:44.258Z,16.40
2023-09-07T02:58:46.514Z,16.40
2023-09-07T02:59:47.975Z,16.40
2023-09-07T03:00:49.527Z,16.30
2023-09-07T03:01:54.286Z,16.30
2023-09-07T03:02:56.720Z,16.30
2023-09-07T03:03:58.657Z,16.30
2023-09-07T03:05:00.251Z,16.30
2023-09-07T03:06:13.890Z,16.30
2023-09-07T03:07:17.660Z,16.30
2023-09-07T03:08:19.302Z,16.30
2023-09-07T03:09:20.748Z,16.30
2023-09-07T03:10:22.358Z,16.30
2023-09-07T03:11:24.642Z,16.30
2023-09-07T03:12:27.126Z,16.30
2023-09-07T03:13:28.652Z,16.30
2023-09-07T03:14:30.625Z,16.30
2023-09-07T03:15:33.060Z,16.30
2023-09-07T03:16:34.788Z,16.30
2023-09-07T03:17:36.316Z,16.30
2023-09-07T03:18:38.164Z,16.30
2023-09-07T03:19:39.652Z,16.30
2023-09-07T03:20:41.174Z,16.30
2023-09-07T03:21:42.896Z,16.30
2023-09-07T03:22:48.192Z,16.30
2023-09-07T03:23:50.214Z,16.30
2023-09-07T03:24:52.568Z,16.30
2023-09-07T03:25:54.527Z,16.30
2023-09-07T03:26:55.979Z,16.30
2023-09-07T03:27:57.501Z,16.30
2023-09-07T03:28:59.502Z,16.30
2023-09-07T03:30:00.951Z,16.30
2023-09-07T03:31:02.395Z,16.30
2023-09-07T03:32:04.391Z,16.30
2023-09-07T03:33:06.889Z,16.30
2023-09-07T03:34:08.412Z,16.30
2023-09-07T03:35:10.732Z,16.30
2023-09-07T03:36:15.291Z,16.30
2023-09-07T03:37:17.007Z,16.30
2023-09-07T03:38:18.408Z,16.20
2023-09-07T03:39:22.471Z,16.30
2023-09-07T03:40:24.629Z,16.30
2023-09-07T03:41:31.277Z,16.30
2023-09-07T03:42:34.148Z,16.20
2023-09-07T03:43:36.667Z,16.20
2023-09-07T03:44:38.187Z,16.20
2023-09-07T03:45:39.562Z,16.20
2023-09-07T03:46:41.143Z,16.30
2023-09-07T03:47:42.954Z,16.20
2023-09-07T03:48:46.387Z,16.20
2023-09-07T03:49:48.083Z,16.20
2023-09-07T03:50:49.459Z,16.20
2023-09-07T03:51:51.460Z,16.20
2023-09-07T03:52:53.009Z,16.20
2023-09-07T03:53:54.425Z,16.20
2023-09-07T03:54:56.967Z,16.20
2023-09-07T03:55:58.803Z,16.20
2023-09-07T03:57:00.575Z,16.20
2023-09-07T03:58:01.949Z,16.20
2023-09-07T03:59:03.757Z,16.10
2023-09-07T04:00:09.159Z,16.20
2023-09-07T04:01:19.449Z,16.20
2023-09-07T04:02:21.769Z,16.20
2023-09-07T04:03:23.733Z,16.10
2023-09-07T04:04:25.523Z,16.20
2023-09-07T04:05:27.512Z,16.20
2023-09-07T04:06:29.136Z,16.20
2023-09-07T04:07:31.322Z,16.20
2023-09-07T04:08:33.849Z,16.10
2023-09-07T04:09:36.100Z,16.20
2023-09-07T04:10:40.658Z,16.20
2023-09-07T04:11:42.558Z,16.20
2023-09-07T04:12:43.993Z,16.20
2023-09-07T04:13:45.619Z,16.20
2023-09-07T04:14:47.021Z,16.20
2023-09-07T04:15:49.075Z,16.20
2023-09-07T04:16:53.816Z,16.10
2023-09-07T04:17:56.078Z,16.10
2023-09-07T04:18:57.778Z,16.10
2023-09-07T04:20:00.429Z,16.00
2023-09-07T04:21:09.670Z,16.00
2023-09-07T04:22:15.656Z,16.00
2023-09-07T04:23:18.278Z,16.00
2023-09-07T04:24:19.768Z,16.00
2023-09-07T04:25:21.660Z,15.90
2023-09-07T04:26:23.111Z,16.00
2023-09-07T04:27:24.915Z,16.00
2023-09-07T04:28:26.334Z,16.00
2023-09-07T04:29:28.624Z,15.90
2023-09-07T04:30:30.096Z,15.90
2023-09-07T04:31:31.629Z,15.90
2023-09-07T04:32:33.431Z,15.90
2023-09-07T04:33:35.673Z,15.90
2023-09-07T04:34:37.383Z,15.90
2023-09-07T04:35:39.632Z,15.90
2023-09-07T04:36:42.118Z,15.90
2023-09-07T04:37:44.804Z,15.90
2023-09-07T04:38:46.360Z,15.90
2023-09-07T04:39:50.616Z,16.00
2023-09-07T04:40:52.216Z,15.90
2023-09-07T04:41:53.606Z,15.90
2023-09-07T04:42:55.423Z,15.90
2023-09-07T04:43:58.547Z,15.90
2023-09-07T04:45:00.193Z,15.90
2023-09-07T04:46:01.630Z,15.90
2023-09-07T04:47:03.349Z,15.90
2023-09-07T04:48:06.023Z,15.90
2023-09-07T04:49:08.989Z,15.90
2023-09-07T04:50:11.110Z,15.90
2023-09-07T04:51:13.908Z,15.90
2023-09-07T04:52:15.994Z,15.90
2023-09-07T04:53:17.486Z,15.90
2023-09-07T04:54:19.254Z,15.90
2023-09-07T04:55:20.658Z,15.80
2023-09-07T04:56:23.289Z,15.90
2023-09-07T04:57:24.908Z,15.80
2023-09-07T04:58:26.812Z,15.80
2023-09-07T04:59:29.014Z,15.80
2023-09-07T05:00:30.435Z,15.80
2023-09-07T05:01:32.974Z,15.80
2023-09-07T05:02:39.591Z,15.80
2023-09-07T05:03:42.380Z,15.90
2023-09-07T05:04:45.602Z,15.80
2023-09-07T05:05:53.012Z,15.80
2023-09-07T05:06:54.546Z,15.90
2023-09-07T05:07:56.316Z,16.00
2023-09-07T05:08:57.822Z,16.00
2023-09-07T05:09:59.299Z,16.00
2023-09-07T05:11:03.827Z,15.90
2023-09-07T05:12:05.834Z,15.90
2023-09-07T05:13:07.285Z,15.90
2023-09-07T05:14:08.737Z,15.90
2023-09-07T05:15:10.881Z,15.90
2023-09-07T05:16:12.489Z,15.90
2023-09-07T05:17:15.068Z,15.90
2023-09-07T05:18:16.858Z,15.90
2023-09-07T05:19:18.497Z,16.00
2023-09-07T05:20:21.046Z,16.00
2023-09-07T05:21:23.527Z,16.00
2023-09-07T05:22:27.510Z,16.00
2023-09-07T05:23:29.932Z,16.00
2023-09-07T05:24:32.399Z,16.00
2023-09-07T05:25:33.862Z,16.00
2023-09-07T05:26:35.573Z,16.00
2023-09-07T05:27:37.330Z,16.00
2023-09-07T05:28:43.954Z,16.00
2023-09-07T05:29:46.480Z,16.00
2023-09-07T05:30:48.739Z,16.00
2023-09-07T05:31:50.410Z,16.00
2023-09-07T05:32:51.903Z,16.00
2023-09-07T05:33:53.392Z,16.00
2023-09-07T05:34:54.876Z,16.10
2023-09-07T05:35:56.500Z,16.10
2023-09-07T05:36:58.226Z,16.10
2023-09-07T05:37:59.992Z,16.10
2023-09-07T05:39:03.910Z,16.10
2023-09-07T05:40:06.233Z,16.10
2023-09-07T05:41:08.475Z,16.10
2023-09-07T05:42:10.118Z,16.10
2023-09-07T05:43:12.533Z,16.10
2023-09-07T05:44:14.500Z,16.10
2023-09-07T05:45:16.418Z,16.10
2023-09-07T05:46:17.893Z,16.10
2023-09-07T05:47:19.530Z,16.10
2023-09-07T05:48:21.026Z,16.10
2023-09-07T05:49:23.554Z,16.20
2023-09-07T05:50:25.383Z,16.10
2023-09-07T05:51:26.760Z,16.20
2023-09-07T05:52:28.266Z,16.20
2023-09-07T05:53:30.021Z,16.20
2023-09-07T05:54:31.797Z,16.20
2023-09-07T05:55:33.624Z,16.20
2023-09-07T05:56:36.019Z,16.20
2023-09-07T05:57:37.428Z,16.20
2023-09-07T05:58:38.974Z,16.20
2023-09-07T05:59:40.672Z,16.20
2023-09-07T06:00:42.372Z,16.20
2023-09-07T06:01:44.073Z,16.20
2023-09-07T06:02:47.277Z,16.20
2023-09-07T06:03:49.342Z,16.20
2023-09-07T06:04:51.122Z,16.20
2023-09-07T06:05:52.749Z,16.20
2023-09-07T06:06:54.422Z,16.20
2023-09-07T06:07:55.841Z,16.20
2023-09-07T06:08:58.250Z,16.20
2023-09-07T06:09:59.952Z,16.30
2023-09-07T06:11:01.579Z,16.30
2023-09-07T06:12:04.497Z,16.30
2023-09-07T06:13:06.458Z,16.30
2023-09-07T06:14:08.139Z,16.30
2023-09-07T06:15:11.609Z,16.40
2023-09-07T06:16:13.244Z,16.40
2023-09-07T06:17:14.847Z,16.50
2023-09-07T06:18:16.334Z,16.50
2023-09-07T06:19:17.823Z,16.50
2023-09-07T06:20:20.575Z,16.60
2023-09-07T06:21:22.061Z,16.60
2023-09-07T06:22:23.714Z,16.60
2023-09-07T06:23:26.470Z,16.60
2023-09-07T06:24:28.306Z,16.70
2023-09-07T06:25:30.018Z,16.80
2023-09-07T06:26:32.411Z,16.80
2023-09-07T06:27:34.013Z,16.80
2023-09-07T06:28:35.620Z,16.80
2023-09-07T06:29:37.259Z,16.80
2023-09-07T06:30:38.679Z,16.90
2023-09-07T06:31:40.296Z,16.90
2023-09-07T06:32:42.591Z,17.00
2023-09-07T06:33:45.429Z,17.00
2023-09-07T06:34:47.064Z,17.00
2023-09-07T06:35:48.600Z,17.00
2023-09-07T06:36:50.058Z,17.10
2023-09-07T06:37:54.603Z,17.10
2023-09-07T06:38:59.838Z,17.20
2023-09-07T06:40:01.493Z,17.20
2023-09-07T06:41:03.891Z,17.20
2023-09-07T06:42:05.516Z,17.30
2023-09-07T06:43:14.246Z,17.30
2023-09-07T06:44:17.514Z,17.40
2023-09-07T06:45:19.564Z,17.40
2023-09-07T06:46:21.115Z,17.50
2023-09-07T06:47:22.611Z,17.50
2023-09-07T06:48:24.121Z,17.50
2023-09-07T06:49:25.627Z,17.60
2023-09-07T06:50:27.205Z,17.60
2023-09-07T06:51:28.875Z,17.70
2023-09-07T06:52:30.453Z,17.70
2023-09-07T06:53:53.217Z,17.80
2023-09-07T06:54:55.113Z,17.80
2023-09-07T06:56:00.991Z,17.90
2023-09-07T06:57:03.068Z,17.90
2023-09-07T06:58:04.742Z,18.00
2023-09-07T06:59:06.339Z,18.10
2023-09-07T07:00:08.864Z,18.10
2023-09-07T07:01:11.985Z,18.20
2023-09-07T07:02:13.739Z,18.20
2023-09-07T07:03:15.377Z,18.30
2023-09-07T07:04:17.218Z,18.30
2023-09-07T07:05:19.196Z,18.40
2023-09-07T07:06:21.161Z,18.50
2023-09-07T07:07:22.757Z,18.50
2023-09-07T07:08:24.759Z,18.60
2023-09-07T07:09:26.148Z,18.70
2023-09-07T07:10:27.716Z,18.80
2023-09-07T07:11:29.206Z,18.80
2023-09-07T07:12:31.757Z,18.90
2023-09-07T07:13:33.477Z,18.90
2023-09-07T07:14:35.195Z,19.00
2023-09-07T07:15:37.208Z,19.10
2023-09-07T07:16:39.045Z,19.10
2023-09-07T07:17:40.807Z,19.20
2023-09-07T07:18:44.596Z,19.20
2023-09-07T07:19:47.111Z,19.30
2023-09-07T07:20:48.542Z,19.30
2023-09-07T07:21:50.137Z,19.30
2023-09-07T07:22:51.861Z,19.30
2023-09-07T07:23:53.739Z,19.30
2023-09-07T07:24:55.895Z,19.40
2023-09-07T07:25:57.827Z,19.40
2023-09-07T07:27:00.581Z,19.40
2023-09-07T07:28:07.968Z,19.40
2023-09-07T07:29:10.571Z,19.50
2023-09-07T07:30:12.947Z,19.60
2023-09-07T07:31:16.135Z,19.70
2023-09-07T07:32:20.732Z,19.70
2023-09-07T07:33:24.800Z,19.70
2023-09-07T07:34:28.158Z,19.70
2023-09-07T07:35:31.639Z,19.70
2023-09-07T07:36:34.680Z,19.80
2023-09-07T07:37:37.941Z,19.80
2023-09-07T07:38:40.559Z,19.90
2023-09-07T07:39:42.738Z,20.00
2023-09-07T07:40:47.694Z,20.00
2023-09-07T07:41:50.404Z,20.10
2023-09-07T07:42:54.419Z,20.20
2023-09-07T07:43:57.249Z,20.20
2023-09-07T07:44:59.476Z,20.20
2023-09-07T07:46:02.864Z,20.20
2023-09-07T07:47:04.949Z,20.30
2023-09-07T07:48:08.897Z,20.40
2023-09-07T07:49:13.235Z,20.40
2023-09-07T07:50:16.785Z,20.50
2023-09-07T07:51:20.078Z,20.50
2023-09-07T07:52:24.626Z,20.50
2023-09-07T07:53:27.649Z,20.50
2023-09-07T07:54:30.473Z,20.60
2023-09-07T07:55:41.821Z,20.60
2023-09-07T07:56:46.954Z,20.60
2023-09-07T07:57:48.340Z,20.60
2023-09-07T07:58:51.025Z,20.60
2023-09-07T07:59:53.019Z,20.60
2023-09-07T08:00:54.528Z,20.70
2023-09-07T08:02:00.901Z,20.70
2023-09-07T08:03:04.248Z,20.70
2023-09-07T08:04:06.157Z,20.70
2023-09-07T08:05:09.543Z,20.80
2023-09-07T08:06:12.481Z,20.80
2023-09-07T08:07:14.412Z,20.80
2023-09-07T08:08:16.315Z,20.90
2023-09-07T08:09:18.303Z,20.90
2023-09-07T08:10:20.816Z,20.90
2023-09-07T08:11:23.028Z,21.00
2023-09-07T08:12:26.690Z,21.00
2023-09-07T08:13:28.096Z,21.10
2023-09-07T08:14:30.343Z,21.10
2023-09-07T08:15:33.920Z,21.10
2023-09-07T08:16:36.154Z,21.20
2023-09-07T08:17:38.857Z,21.20
2023-09-07T08:18:41.574Z,21.30
2023-09-07T08:19:45.314Z,21.30
2023-09-07T08:20:46.889Z,21.40
2023-09-07T08:21:48.850Z,21.40
2023-09-07T08:22:50.352Z,21.50
2023-09-07T08:23:54.122Z,21.50
2023-09-07T08:24:56.633Z,21.60
2023-09-07T08:25:58.211Z,21.60
2023-09-07T08:27:01.200Z,21.60
2023-09-07T08:28:06.529Z,21.70
2023-09-07T08:29:09.665Z,21.70
2023-09-07T08:30:17.119Z,21.70
2023-09-07T08:31:23.026Z,21.80
2023-09-07T08:32:25.194Z,21.80
2023-09-07T08:33:30.912Z,21.90
2023-09-07T08:34:32.723Z,21.90
2023-09-07T08:35:36.633Z,21.90
2023-09-07T08:36:38.587Z,22.00
2023-09-07T08:37:40.949Z,22.00
2023-09-07T08:38:42.798Z,22.10
2023-09-07T08:39:44.439Z,22.10
2023-09-07T08:40:47.446Z,22.20
2023-09-07T08:42:00.069Z,22.30
2023-09-07T08:43:04.996Z,22.30
2023-09-07T08:44:09.329Z,22.30
2023-09-07T08:45:13.675Z,22.30
2023-09-07T08:46:18.702Z,22.30
2023-09-07T08:47:21.847Z,22.30
2023-09-07T08:48:23.913Z,22.30
2023-09-07T08:49:26.317Z,22.40
2023-09-07T08:50:29.148Z,22.40
2023-09-07T08:51:30.853Z,22.50
2023-09-07T08:52:32.681Z,22.50
2023-09-07T08:53:34.914Z,22.50
2023-09-07T08:54:38.430Z,22.40
2023-09-07T08:55:39.877Z,22.50
2023-09-07T08:56:41.414Z,22.40
2023-09-07T08:57:42.846Z,22.40
2023-09-07T08:58:46.125Z,22.50
2023-09-07T08:59:48.283Z,22.50
2023-09-07T09:00:50.547Z,22.60
2023-09-07T09:01:56.709Z,22.60
2023-09-07T09:02:58.701Z,22.60
2023-09-07T09:04:00.705Z,22.70
2023-09-07T09:05:03.160Z,22.70
2023-09-07T09:06:08.501Z,22.70
2023-09-07T09:07:10.232Z,22.80
2023-09-07T09:08:12.285Z,22.90
2023-09-07T09:09:25.559Z,23.00
2023-09-07T09:10:27.238Z,23.00
2023-09-07T09:11:28.907Z,23.00
2023-09-07T09:12:30.941Z,23.00
2023-09-07T09:13:34.364Z,23.00
2023-09-07T09:14:37.242Z,22.90
2023-09-07T09:15:39.221Z,23.00
2023-09-07T09:16:40.754Z,23.10
2023-09-07T09:17:42.752Z,23.10
2023-09-07T09:18:53.459Z,23.10
2023-09-07T09:19:55.028Z,23.20
2023-09-07T09:20:57.148Z,23.30
2023-09-07T09:21:59.013Z,23.40
2023-09-07T09:23:04.675Z,23.50
2023-09-07T09:24:11.807Z,23.40
2023-09-07T09:25:13.741Z,23.50
2023-09-07T09:26:15.476Z,23.60
2023-09-07T09:27:18.110Z,23.60
2023-09-07T09:28:19.925Z,23.60
2023-09-07T09:29:24.460Z,23.60
2023-09-07T09:30:26.426Z,23.60
2023-09-07T09:31:27.841Z,23.60
2023-09-07T09:32:30.771Z,23.70
2023-09-07T09:33:34.486Z,23.70
2023-09-07T09:34:36.890Z,23.60
2023-09-07T09:35:42.000Z,23.70
2023-09-07T09:36:44.617Z,23.70
2023-09-07T09:37:50.225Z,23.80
2023-09-07T09:38:54.684Z,23.80
2023-09-07T09:39:57.392Z,23.90
2023-09-07T09:40:59.334Z,23.90
2023-09-07T09:42:01.159Z,24.00
2023-09-07T09:43:07.216Z,24.10
2023-09-07T09:44:09.860Z,24.20
2023-09-07T09:45:12.817Z,24.20
2023-09-07T09:46:15.319Z,24.10
2023-09-07T09:47:17.583Z,24.20
2023-09-07T09:48:21.728Z,24.20
2023-09-07T09:49:24.048Z,24.20
2023-09-07T09:50:25.463Z,24.20
2023-09-07T09:51:29.633Z,24.20
2023-09-07T09:52:31.489Z,24.20
2023-09-07T09:53:33.548Z,24.20
2023-09-07T09:54:37.237Z,24.20
2023-09-07T09:55:39.647Z,24.20
2023-09-07T09:56:42.325Z,24.30
2023-09-07T09:57:44.242Z,24.30
2023-09-07T09:58:45.737Z,24.30
2023-09-07T09:59:47.216Z,24.40
2023-09-07T10:00:56.652Z,24.60
2023-09-07T10:01:58.903Z,24.60
2023-09-07T10:03:12.569Z,24.70
2023-09-07T10:04:17.973Z,24.80
2023-09-07T10:05:20.421Z,24.70
2023-09-07T10:06:26.537Z,24.70
2023-09-07T10:07:43.702Z,24.70
2023-09-07T10:09:07.983Z,24.80
2023-09-07T10:10:17.202Z,24.80
2023-09-07T10:11:28.549Z,24.80
2023-09-07T10:12:30.088Z,24.90
2023-09-07T10:13:33.373Z,24.90
2023-09-07T10:14:42.101Z,25.00
2023-09-07T10:15:44.130Z,25.00
2023-09-07T10:16:46.544Z,25.10
2023-09-07T10:17:51.418Z,25.10
2023-09-07T10:18:53.046Z,25.00
2023-09-07T10:20:06.839Z,25.00
2023-09-07T10:21:08.262Z,25.00
2023-09-07T10:22:09.894Z,25.10
2023-09-07T10:23:11.267Z,25.10
2023-09-07T10:24:13.037Z,25.20
2023-09-07T10:25:22.285Z,25.30
2023-09-07T10:26:23.724Z,25.30
2023-09-07T10:27:25.407Z,25.30
2023-09-07T10:28:27.288Z,25.40
2023-09-07T10:29:29.099Z,25.50
2023-09-07T10:30:30.768Z,25.50
2023-09-07T10:31:44.218Z,25.50
2023-09-07T10:32:49.885Z,25.60
2023-09-07T10:33:51.354Z,25.50
2023-09-07T10:34:53.044Z,25.50
2023-09-07T10:35:54.619Z,25.50
2023-09-07T10:36:57.768Z,25.60
2023-09-07T10:37:59.661Z,25.60
2023-09-07T10:39:01.703Z,25.50
2023-09-07T10:40:04.860Z,25.50
2023-09-07T10:41:06.472Z,25.60
2023-09-07T10:42:08.796Z,25.60
2023-09-07T10:43:10.500Z,25.70
2023-09-07T10:44:12.721Z,25.80
2023-09-07T10:45:17.674Z,25.90
2023-09-07T10:46:21.491Z,25.90
2023-09-07T10:47:23.117Z,26.00
2023-09-07T10:48:26.365Z,26.00
2023-09-07T10:49:27.985Z,26.00
2023-09-07T10:50:29.459Z,26.10
2023-09-07T10:51:31.000Z,26.20
2023-09-07T10:52:34.851Z,26.20
2023-09-07T10:53:36.946Z,26.20
2023-09-07T10:54:38.371Z,26.10
2023-09-07T10:55:41.106Z,26.00
2023-09-07T10:56:45.317Z,26.10
2023-09-07T10:57:48.712Z,26.10
2023-09-07T10:58:52.436Z,26.20
2023-09-07T10:59:56.285Z,26.00
2023-09-07T11:00:58.988Z,26.10
2023-09-07T11:02:07.373Z,26.10
2023-09-07T11:03:10.707Z,26.20
2023-09-07T11:04:12.813Z,26.30
2023-09-07T11:05:14.268Z,26.40
2023-09-07T11:06:21.999Z,26.40
2023-09-07T11:07:24.729Z,26.40
2023-09-07T11:08:26.575Z,26.40
2023-09-07T11:09:27.969Z,26.50
2023-09-07T11:10:29.640Z,26.50
2023-09-07T11:11:34.361Z,26.60
2023-09-07T11:12:40.773Z,26.60
2023-09-07T11:13:42.302Z,26.60
2023-09-07T11:14:43.778Z,26.70
2023-09-07T11:15:45.735Z,26.70
2023-09-07T11:16:47.243Z,26.70
2023-09-07T11:17:48.727Z,26.70
2023-09-07T11:18:52.409Z,26.70
2023-09-07T11:19:53.951Z,26.80
2023-09-07T11:20:57.229Z,26.80
2023-09-07T11:21:58.695Z,26.80
2023-09-07T11:23:05.427Z,26.90
2023-09-07T11:24:09.248Z,26.90
2023-09-07T11:25:10.656Z,26.90
2023-09-07T11:26:12.137Z,27.00
2023-09-07T11:27:14.055Z,26.90
2023-09-07T11:28:19.205Z,26.90
2023-09-07T11:29:21.052Z,26.90
2023-09-07T11:30:23.137Z,27.00
2023-09-07T11:31:24.912Z,27.00
2023-09-07T11:32:35.047Z,27.10
2023-09-07T11:33:36.622Z,27.20
2023-09-07T11:34:59.694Z,27.20
2023-09-07T11:36:01.608Z,27.10
2023-09-07T11:37:05.976Z,27.20
2023-09-07T11:38:09.698Z,27.20
2023-09-07T11:39:14.425Z,27.20
2023-09-07T11:40:16.338Z,27.20
2023-09-07T11:41:18.377Z,27.30
2023-09-07T11:42:20.063Z,27.40
2023-09-07T11:43:21.759Z,27.50
2023-09-07T11:44:23.457Z,27.50
2023-09-07T11:45:25.753Z,27.50
2023-09-07T11:46:27.514Z,27.40
2023-09-07T11:47:29.028Z,27.50
2023-09-07T11:48:30.617Z,27.60
2023-09-07T11:49:34.176Z,27.50
2023-09-07T11:50:36.073Z,27.50
2023-09-07T11:51:38.003Z,27.60
2023-09-07T11:52:39.674Z,27.50
2023-09-07T11:53:41.173Z,27.50
2023-09-07T11:54:42.785Z,27.50
2023-09-07T11:55:44.702Z,27.60
2023-09-07T11:56:46.842Z,27.60
2023-09-07T11:57:48.291Z,27.60
2023-09-07T11:58:50.223Z,27.70
2023-09-07T11:59:59.126Z,27.80
2023-09-07T12:01:01.372Z,27.80
2023-09-07T12:02:02.999Z,27.80
2023-09-07T12:03:04.948Z,27.90
2023-09-07T12:04:07.684Z,27.90
2023-09-07T12:05:10.343Z,28.00
2023-09-07T12:06:11.784Z,28.00
2023-09-07T12:07:14.209Z,28.00
2023-09-07T12:08:15.769Z,28.00
2023-09-07T12:09:18.227Z,28.00
2023-09-07T12:10:19.776Z,28.00
2023-09-07T12:11:21.196Z,28.10
2023-09-07T12:12:22.586Z,28.10
2023-09-07T12:13:24.361Z,28.10
2023-09-07T12:14:25.778Z,28.20
2023-09-07T12:15:27.566Z,28.20
2023-09-07T12:16:29.617Z,28.20
2023-09-07T12:17:32.467Z,28.10
2023-09-07T12:18:34.453Z,28.20
2023-09-07T12:19:35.919Z,28.20
2023-09-07T12:20:37.465Z,28.20
2023-09-07T12:21:39.232Z,28.30
2023-09-07T12:22:40.689Z,28.30
2023-09-07T12:23:42.260Z,28.30
2023-09-07T12:24:44.604Z,28.40
2023-09-07T12:25:51.746Z,28.40
2023-09-07T12:26:53.277Z,28.40
2023-09-07T12:27:55.435Z,28.40
2023-09-07T12:28:57.101Z,28.40
2023-09-07T12:29:58.648Z,28.40
2023-09-07T12:31:00.096Z,28.50
2023-09-07T12:32:01.678Z,28.50
2023-09-07T12:33:03.929Z,28.50
2023-09-07T12:34:06.028Z,28.50
2023-09-07T12:35:09.544Z,28.50
2023-09-07T12:36:12.502Z,28.50
2023-09-07T12:37:13.944Z,28.60
2023-09-07T12:38:18.956Z,28.60
2023-09-07T12:39:20.539Z,28.60
2023-09-07T12:40:21.971Z,28.70
2023-09-07T12:41:23.931Z,28.70
2023-09-07T12:42:25.539Z,28.70
2023-09-07T12:43:27.327Z,28.80
2023-09-07T12:44:28.859Z,28.70
2023-09-07T12:45:30.253Z,28.70
2023-09-07T12:46:32.312Z,28.80
2023-09-07T12:47:33.882Z,28.80
2023-09-07T12:48:35.563Z,28.90
2023-09-07T12:49:36.986Z,28.90
2023-09-07T12:50:38.719Z,28.90
2023-09-07T12:51:40.084Z,28.80
2023-09-07T12:52:42.050Z,28.80
2023-09-07T12:53:43.785Z,28.80
2023-09-07T12:54:45.324Z,28.80
2023-09-07T12:55:46.774Z,28.80
2023-09-07T12:56:48.541Z,28.80
2023-09-07T12:57:50.084Z,28.80
2023-09-07T12:58:53.659Z,28.70
2023-09-07T12:59:55.063Z,28.70
2023-09-07T13:00:56.455Z,28.70
2023-09-07T13:01:58.224Z,28.80
2023-09-07T13:03:00.079Z,28.70
2023-09-07T13:04:01.628Z,28.80
2023-09-07T13:05:06.376Z,28.90
2023-09-07T13:06:08.338Z,28.80
2023-09-07T13:07:10.102Z,28.90
2023-09-07T13:08:12.366Z,28.80
2023-09-07T13:09:14.340Z,28.90
2023-09-07T13:10:15.906Z,28.90
2023-09-07T13:11:17.531Z,28.90
2023-09-07T13:12:19.053Z,29.00
2023-09-07T13:13:22.440Z,28.90
2023-09-07T13:14:34.115Z,28.90
2023-09-07T13:15:36.055Z,29.00
2023-09-07T13:16:38.043Z,29.00
2023-09-07T13:17:39.767Z,28.90
2023-09-07T13:18:41.368Z,29.00
2023-09-07T13:19:43.357Z,29.00
2023-09-07T13:20:46.434Z,29.10
2023-09-07T13:21:48.053Z,29.10
2023-09-07T13:22:49.520Z,29.20
2023-09-07T13:23:51.432Z,29.30
2023-09-07T13:24:52.939Z,29.20
2023-09-07T13:25:55.313Z,29.20
2023-09-07T13:26:57.456Z,29.20
2023-09-07T13:27:59.364Z,29.30
2023-09-07T13:29:02.443Z,29.30